sensor_id;sensor_type;location;lat;lon;timestamp;pressure;altitude;pressure_sealevel;temperature;humidity
46347;BME280;32057;47.830;19.046;2023-07-29T00:00:36;99755.50;;;18.21;100.00
46347;BME280;32057;47.830;19.046;2023-07-29T00:03:01;99752.88;;;18.21;100.00
46347;BME280;32057;47.830;19.046;2023-07-29T00:05:26;99762.59;;;18.17;100.00
46347;BME280;32057;47.830;19.046;2023-07-29T00:07:52;99767.84;;;18.19;100.00
46347;BME280;32057;47.830;19.046;2023-07-29T00:10:17;99759.06;;;18.18;100.00
46347;BME280;32057;47.830;19.046;2023-07-29T00:12:43;99762.59;;;18.17;100.00
46347;BME280;32057;47.830;19.046;2023-07-29T00:15:09;99762.59;;;18.17;100.00
46347;BME280;32057;47.830;19.046;2023-07-29T00:17:34;99762.69;;;18.13;100.00
46347;BME280;32057;47.830;19.046;2023-07-29T00:19:59;99766.38;;;18.05;100.00
46347;BME280;32057;47.830;19.046;2023-07-29T00:22:25;99763.91;;;17.95;100.00
46347;BME280;32057;47.830;19.046;2023-07-29T00:24:53;99764.13;;;17.84;100.00
46347;BME280;32057;47.830;19.046;2023-07-29T00:27:23;99767.72;;;17.77;100.00
46347;BME280;32057;47.830;19.046;2023-07-29T00:29:49;99764.34;;;17.70;100.00
46347;BME280;32057;47.830;19.046;2023-07-29T00:32:14;99771.31;;;17.72;100.00
46347;BME280;32057;47.830;19.046;2023-07-29T00:34:40;99759.09;;;17.68;100.00
46347;BME280;32057;47.830;19.046;2023-07-29T00:37:05;99762.72;;;17.61;100.00
46347;BME280;32057;47.830;19.046;2023-07-29T00:39:31;99766.38;;;17.54;100.00
46347;BME280;32057;47.830;19.046;2023-07-29T00:41:57;99767.31;;;17.51;100.00
46347;BME280;32057;47.830;19.046;2023-07-29T00:44:22;99763.84;;;17.49;100.00
46347;BME280;32057;47.830;19.046;2023-07-29T00:46:50;99766.41;;;17.52;100.00
46347;BME280;32057;47.830;19.046;2023-07-29T00:49:16;99770.81;;;17.50;100.00
46347;BME280;32057;47.830;19.046;2023-07-29T00:51:41;99765.53;;;17.52;100.00
46347;BME280;32057;47.830;19.046;2023-07-29T00:54:07;99762.91;;;17.52;100.00
46347;BME280;32057;47.830;19.046;2023-07-29T00:56:32;99754.38;;;17.38;100.00
46347;BME280;32057;47.830;19.046;2023-07-29T00:58:58;99756.22;;;17.32;100.00
46347;BME280;32057;47.830;19.046;2023-07-29T01:01:27;99751.09;;;17.23;100.00
46347;BME280;32057;47.830;19.046;2023-07-29T01:03:52;99758.09;;;17.24;100.00
46347;BME280;32057;47.830;19.046;2023-07-29T01:06:27;99751.91;;;17.27;100.00
46347;BME280;32057;47.830;19.046;2023-07-29T01:09:07;99750.22;;;17.23;100.00
46347;BME280;32057;47.830;19.046;2023-07-29T01:11:43;99747.63;;;17.21;100.00
46347;BME280;32057;47.830;19.046;2023-07-29T01:16:44;99747.69;;;17.18;100.00
46347;BME280;32057;47.830;19.046;2023-07-29T01:19:25;99742.31;;;17.24;100.00
46347;BME280;32057;47.830;19.046;2023-07-29T01:21:55;99742.31;;;17.24;100.00
46347;BME280;32057;47.830;19.046;2023-07-29T01:24:21;99742.34;;;17.23;100.00
46347;BME280;32057;47.830;19.046;2023-07-29T01:26:46;99739.91;;;17.12;100.00
46347;BME280;32057;47.830;19.046;2023-07-29T01:29:12;99744.41;;;17.04;100.00
46347;BME280;32057;47.830;19.046;2023-07-29T01:31:43;99740.88;;;17.05;100.00
46347;BME280;32057;47.830;19.046;2023-07-29T01:34:29;99735.63;;;17.05;100.00
46347;BME280;32057;47.830;19.046;2023-07-29T01:36:59;99739.06;;;17.10;100.00
46347;BME280;32057;47.830;19.046;2023-07-29T01:39:29;99738.22;;;17.08;100.00
46347;BME280;32057;47.830;19.046;2023-07-29T01:41:58;99731.16;;;17.11;100.00
46347;BME280;32057;47.830;19.046;2023-07-29T01:44:24;99735.47;;;17.14;100.00
46347;BME280;32057;47.830;19.046;2023-07-29T01:46:51;99737.47;;;17.00;100.00
46347;BME280;32057;47.830;19.046;2023-07-29T01:49:16;99745.56;;;16.86;100.00
46347;BME280;32057;47.830;19.046;2023-07-29T01:51:42;99741.94;;;16.93;100.00
46347;BME280;32057;47.830;19.046;2023-07-29T01:54:07;99735.78;;;16.96;100.00
46347;BME280;32057;47.830;19.046;2023-07-29T01:56:33;99740.09;;;17.00;100.00
46347;BME280;32057;47.830;19.046;2023-07-29T01:58:58;99741.06;;;16.92;100.00
46347;BME280;32057;47.830;19.046;2023-07-29T02:01:23;99740.38;;;16.77;100.00
46347;BME280;32057;47.830;19.046;2023-07-29T02:03:49;99744.16;;;16.59;100.00
46347;BME280;32057;47.830;19.046;2023-07-29T02:06:20;99741.56;;;16.56;100.00
46347;BME280;32057;47.830;19.046;2023-07-29T02:08:45;99747.63;;;16.59;100.00
46347;BME280;32057;47.830;19.046;2023-07-29T02:11:10;99749.31;;;16.63;100.00
46347;BME280;32057;47.830;19.046;2023-07-29T02:13:36;99754.56;;;16.63;100.00
46347;BME280;32057;47.830;19.046;2023-07-29T02:16:01;99751.06;;;16.64;100.00
46347;BME280;32057;47.830;19.046;2023-07-29T02:18:27;99751.06;;;16.64;100.00
46347;BME280;32057;47.830;19.046;2023-07-29T02:20:52;99743.22;;;16.61;100.00
46347;BME280;32057;47.830;19.046;2023-07-29T02:23:17;99738.91;;;16.57;100.00
46347;BME280;32057;47.830;19.046;2023-07-29T02:25:43;99738.28;;;16.40;100.00
46347;BME280;32057;47.830;19.046;2023-07-29T02:28:08;99755.06;;;16.28;100.00
46347;BME280;32057;47.830;19.046;2023-07-29T02:30:34;99750.56;;;16.36;100.00
46347;BME280;32057;47.830;19.046;2023-07-29T02:32:59;99753.13;;;16.41;100.00
46347;BME280;32057;47.830;19.046;2023-07-29T02:35:26;99747.75;;;16.51;100.00
46347;BME280;32057;47.830;19.046;2023-07-29T02:37:52;99755.56;;;16.58;100.00
46347;BME280;32057;47.830;19.046;2023-07-29T02:40:17;99757.28;;;16.57;100.00
46347;BME280;32057;47.830;19.046;2023-07-29T02:42:43;99752.09;;;16.52;100.00
46347;BME280;32057;47.830;19.046;2023-07-29T02:45:08;99757.34;;;16.52;100.00
46347;BME280;32057;47.830;19.046;2023-07-29T02:47:39;99750.44;;;16.45;100.00
46347;BME280;32057;47.830;19.046;2023-07-29T02:50:05;99750.53;;;16.39;100.00
46347;BME280;32057;47.830;19.046;2023-07-29T02:52:30;99754.88;;;16.42;100.00
46347;BME280;32057;47.830;19.046;2023-07-29T02:54:55;99747.00;;;16.42;100.00
46347;BME280;32057;47.830;19.046;2023-07-29T02:57:21;99745.19;;;16.45;100.00
46347;BME280;32057;47.830;19.046;2023-07-29T02:59:46;99748.63;;;16.50;100.00
46347;BME280;32057;47.830;19.046;2023-07-29T03:02:11;99752.09;;;16.52;100.00
46347;BME280;32057;47.830;19.046;2023-07-29T03:04:37;99759.16;;;16.47;100.00
46347;BME280;32057;47.830;19.046;2023-07-29T03:07:02;99760.91;;;16.48;100.00
46347;BME280;32057;47.830;19.046;2023-07-29T03:09:28;99763.56;;;16.47;100.00
46347;BME280;32057;47.830;19.046;2023-07-29T03:11:53;99764.50;;;16.43;100.00
46347;BME280;32057;47.830;19.046;2023-07-29T03:14:20;99767.19;;;16.37;100.00
46347;BME280;32057;47.830;19.046;2023-07-29T03:16:46;99760.22;;;16.34;100.00
46347;BME280;32057;47.830;19.046;2023-07-29T03:19:12;99766.56;;;16.18;100.00
46347;BME280;32057;47.830;19.046;2023-07-29T03:21:37;99770.16;;;16.07;100.00
46347;BME280;32057;47.830;19.046;2023-07-29T03:24:03;99782.41;;;16.05;100.00
46347;BME280;32057;47.830;19.046;2023-07-29T03:26:28;99769.28;;;16.07;100.00
46347;BME280;32057;47.830;19.046;2023-07-29T03:28:54;99772.75;;;16.10;100.00
46347;BME280;32057;47.830;19.046;2023-07-29T03:31:19;99768.28;;;16.19;100.00
46347;BME280;32057;47.830;19.046;2023-07-29T03:33:44;99771.81;;;16.15;100.00
46347;BME280;32057;47.830;19.046;2023-07-29T03:36:10;99761.34;;;16.15;100.00
46347;BME280;32057;47.830;19.046;2023-07-29T03:38:35;99761.34;;;16.11;100.00
46347;BME280;32057;47.830;19.046;2023-07-29T03:41:05;99766.56;;;16.18;100.00
46347;BME280;32057;47.830;19.046;2023-07-29T03:43:31;99772.75;;;16.09;100.00
46347;BME280;32057;47.830;19.046;2023-07-29T03:45:56;99772.84;;;16.01;100.00
46347;BME280;32057;47.830;19.046;2023-07-29T03:48:21;99774.59;;;16.01;100.00
46347;BME280;32057;47.830;19.046;2023-07-29T03:50:47;99764.97;;;16.01;100.00
46347;BME280;32057;47.830;19.046;2023-07-29T03:53:12;99774.66;;;15.98;100.00
46347;BME280;32057;47.830;19.046;2023-07-29T03:55:37;99761.53;;;15.96;100.00
46347;BME280;32057;47.830;19.046;2023-07-29T03:58:03;99763.19;;;16.03;100.00
46347;BME280;32057;47.830;19.046;2023-07-29T04:00:28;99773.75;;;15.97;100.00
46347;BME280;32057;47.830;19.046;2023-07-29T04:02:54;99781.63;;;15.97;100.00
46347;BME280;32057;47.830;19.046;2023-07-29T04:05:19;99784.25;;;16.00;100.00
46347;BME280;32057;47.830;19.046;2023-07-29T04:07:45;99771.97;;;16.02;100.00
46347;BME280;32057;47.830;19.046;2023-07-29T04:10:10;99780.69;;;16.04;100.00
46347;BME280;32057;47.830;19.046;2023-07-29T04:12:36;99783.25;;;16.10;100.00
46347;BME280;32057;47.830;19.046;2023-07-29T04:15:02;99781.47;;;16.16;100.00
46347;BME280;32057;47.830;19.046;2023-07-29T04:17:27;99773.53;;;16.19;100.00
46347;BME280;32057;47.830;19.046;2023-07-29T04:19:53;99784.88;;;16.19;100.00
46347;BME280;32057;47.830;19.046;2023-07-29T04:22:18;99788.38;;;16.21;100.00
46347;BME280;32057;47.830;19.046;2023-07-29T04:24:44;99782.19;;;16.27;100.00
46347;BME280;32057;47.830;19.046;2023-07-29T04:27:09;99768.06;;;16.37;100.00
46347;BME280;32057;47.830;19.046;2023-07-29T04:29:35;99776.66;;;16.51;100.00
46347;BME280;32057;47.830;19.046;2023-07-29T04:32:02;99775.59;;;16.63;100.00
46347;BME280;32057;47.830;19.046;2023-07-29T04:34:27;99772.03;;;16.69;100.00
46347;BME280;32057;47.830;19.046;2023-07-29T04:36:53;99766.78;;;16.67;100.00
46347;BME280;32057;47.830;19.046;2023-07-29T04:39:18;99762.34;;;16.74;100.00
46347;BME280;32057;47.830;19.046;2023-07-29T04:41:44;99767.41;;;16.89;100.00
46347;BME280;32057;47.830;19.046;2023-07-29T04:44:09;99765.34;;;17.08;100.00
46347;BME280;32057;47.830;19.046;2023-07-29T04:46:36;99773.84;;;17.27;100.00
46347;BME280;32057;47.830;19.046;2023-07-29T04:49:02;99775.31;;;17.44;100.00
46347;BME280;32057;47.830;19.046;2023-07-29T04:51:28;99777.78;;;17.53;100.00
46347;BME280;32057;47.830;19.046;2023-07-29T04:53:53;99787.28;;;17.63;100.00
46347;BME280;32057;47.830;19.046;2023-07-29T04:56:19;99787.09;;;17.72;100.00
46347;BME280;32057;47.830;19.046;2023-07-29T04:58:44;99791.28;;;17.83;100.00
46347;BME280;32057;47.830;19.046;2023-07-29T05:01:10;99786.66;;;17.97;100.00
46347;BME280;32057;47.830;19.046;2023-07-29T05:03:35;99779.41;;;18.11;100.00
46347;BME280;32057;47.830;19.046;2023-07-29T05:06:02;99772.09;;;18.26;100.00
46347;BME280;32057;47.830;19.046;2023-07-29T05:08:27;99772.69;;;18.39;100.00
46347;BME280;32057;47.830;19.046;2023-07-29T05:10:53;99769.66;;;18.59;100.00
46347;BME280;32057;47.830;19.046;2023-07-29T05:13:19;99771.94;;;18.76;100.00
46347;BME280;32057;47.830;19.046;2023-07-29T05:15:47;99781.22;;;18.94;100.00
46347;BME280;32057;47.830;19.046;2023-07-29T05:18:12;99778.19;;;19.10;100.00
46347;BME280;32057;47.830;19.046;2023-07-29T05:20:38;99784.06;;;19.23;100.00
46347;BME280;32057;47.830;19.046;2023-07-29T05:23:03;99776.63;;;19.39;100.00
46347;BME280;32057;47.830;19.046;2023-07-29T05:25:28;99774.50;;;19.54;100.00
46347;BME280;32057;47.830;19.046;2023-07-29T05:27:54;99779.66;;;19.58;100.00
46347;BME280;32057;47.830;19.046;2023-07-29T05:30:19;99781.19;;;19.67;100.00
46347;BME280;32057;47.830;19.046;2023-07-29T05:32:45;99780.25;;;19.69;100.00
46347;BME280;32057;47.830;19.046;2023-07-29T05:35:10;99788.03;;;19.77;100.00
46347;BME280;32057;47.830;19.046;2023-07-29T05:37:39;99796.53;;;19.87;100.00
46347;BME280;32057;47.830;19.046;2023-07-29T05:40:08;99805.75;;;20.05;100.00
46347;BME280;32057;47.830;19.046;2023-07-29T05:42:36;99809.66;;;20.23;100.00
46347;BME280;32057;47.830;19.046;2023-07-29T05:45:01;99804.88;;;20.37;100.00
46347;BME280;32057;47.830;19.046;2023-07-29T05:47:27;99810.50;;;20.56;100.00
46347;BME280;32057;47.830;19.046;2023-07-29T05:49:53;99814.72;;;20.63;100.00
46347;BME280;32057;47.830;19.046;2023-07-29T05:52:18;99822.06;;;20.83;100.00
46347;BME280;32057;47.830;19.046;2023-07-29T05:54:44;99826.31;;;20.89;100.00
46347;BME280;32057;47.830;19.046;2023-07-29T05:57:10;99819.47;;;20.82;100.00
46347;BME280;32057;47.830;19.046;2023-07-29T05:59:36;99823.66;;;20.89;100.00
46347;BME280;32057;47.830;19.046;2023-07-29T06:02:01;99825.00;;;20.73;100.00
46347;BME280;32057;47.830;19.046;2023-07-29T06:04:26;99826.06;;;20.97;100.00
46347;BME280;32057;47.830;19.046;2023-07-29T06:06:52;99824.53;;;21.18;100.00
46347;BME280;32057;47.830;19.046;2023-07-29T06:09:17;99820.53;;;21.33;100.00
46347;BME280;32057;47.830;19.046;2023-07-29T06:11:43;99829.81;;;21.47;100.00
46347;BME280;32057;47.830;19.046;2023-07-29T06:14:08;99826.59;;;21.64;100.00
46347;BME280;32057;47.830;19.046;2023-07-29T06:16:34;99832.31;;;22.04;100.00
46347;BME280;32057;47.830;19.046;2023-07-29T06:18:59;99834.44;;;22.19;100.00
46347;BME280;32057;47.830;19.046;2023-07-29T06:21:25;99832.41;;;22.27;100.00
46347;BME280;32057;47.830;19.046;2023-07-29T06:23:50;99839.69;;;22.46;100.00
46347;BME280;32057;47.830;19.046;2023-07-29T06:26:15;99841.03;;;22.58;100.00
46347;BME280;32057;47.830;19.046;2023-07-29T06:28:41;99839.41;;;22.77;100.00
46347;BME280;32057;47.830;19.046;2023-07-29T06:31:06;99848.94;;;22.59;100.00
46347;BME280;32057;47.830;19.046;2023-07-29T06:33:32;99838.66;;;22.50;100.00
46347;BME280;32057;47.830;19.046;2023-07-29T06:35:57;99836.41;;;22.39;100.00
46347;BME280;32057;47.830;19.046;2023-07-29T06:38:22;99838.19;;;22.39;100.00
46347;BME280;32057;47.830;19.046;2023-07-29T06:40:48;99839.16;;;22.36;100.00
46347;BME280;32057;47.830;19.046;2023-07-29T06:43:14;99837.78;;;22.50;100.00
46347;BME280;32057;47.830;19.046;2023-07-29T06:45:39;99839.81;;;22.66;100.00
46347;BME280;32057;47.830;19.046;2023-07-29T06:48:05;99833.88;;;22.83;100.00
46347;BME280;32057;47.830;19.046;2023-07-29T06:50:30;99830.69;;;23.21;100.00
46347;BME280;32057;47.830;19.046;2023-07-29T06:52:55;99837.34;;;23.53;100.00
46347;BME280;32057;47.830;19.046;2023-07-29T06:55:21;99845.28;;;23.33;100.00
46347;BME280;32057;47.830;19.046;2023-07-29T06:57:46;99843.53;;;23.32;100.00
46347;BME280;32057;47.830;19.046;2023-07-29T07:00:12;99830.75;;;23.19;100.00
46347;BME280;32057;47.830;19.046;2023-07-29T07:02:37;99831.81;;;23.15;100.00
46347;BME280;32057;47.830;19.046;2023-07-29T07:05:03;99838.81;;;23.16;100.00
46347;BME280;32057;47.830;19.046;2023-07-29T07:07:28;99841.91;;;23.27;100.00
46347;BME280;32057;47.830;19.046;2023-07-29T07:09:54;99842.41;;;23.37;100.00
46347;BME280;32057;47.830;19.046;2023-07-29T07:12:19;99836.97;;;23.62;100.00
46347;BME280;32057;47.830;19.046;2023-07-29T07:14:44;99840.66;;;23.58;100.00
46347;BME280;32057;47.830;19.046;2023-07-29T07:17:10;99843.66;;;23.51;100.00
46347;BME280;32057;47.830;19.046;2023-07-29T07:19:35;99838.75;;;23.62;100.00
46347;BME280;32057;47.830;19.046;2023-07-29T07:22:01;99837.31;;;23.97;100.00
46347;BME280;32057;47.830;19.046;2023-07-29T07:24:26;99833.72;;;24.19;99.05
46347;BME280;32057;47.830;19.046;2023-07-29T07:26:51;99826.69;;;23.97;98.53
46347;BME280;32057;47.830;19.046;2023-07-29T07:29:17;99832.13;;;23.94;96.96
46347;BME280;32057;47.830;19.046;2023-07-29T07:31:50;99826.78;;;24.35;97.65
46347;BME280;32057;47.830;19.046;2023-07-29T07:34:16;99824.50;;;23.87;95.49
46347;BME280;32057;47.830;19.046;2023-07-29T07:36:42;99818.00;;;23.72;97.16
46347;BME280;32057;47.830;19.046;2023-07-29T07:39:07;99819.56;;;23.77;99.63
46347;BME280;32057;47.830;19.046;2023-07-29T07:41:33;99824.22;;;23.93;98.38
46347;BME280;32057;47.830;19.046;2023-07-29T07:43:58;99822.56;;;24.11;98.52
46347;BME280;32057;47.830;19.046;2023-07-29T07:46:23;99824.44;;;24.09;98.25
46347;BME280;32057;47.830;19.046;2023-07-29T07:48:49;99827.34;;;24.02;97.83
46347;BME280;32057;47.830;19.046;2023-07-29T07:51:14;99820.41;;;23.98;97.56
46347;BME280;32057;47.830;19.046;2023-07-29T07:53:40;99818.03;;;23.92;98.31
46347;BME280;32057;47.830;19.046;2023-07-29T07:56:06;99822.97;;;24.01;97.88
46347;BME280;32057;47.830;19.046;2023-07-29T07:58:32;99820.56;;;23.95;98.13
46347;BME280;32057;47.830;19.046;2023-07-29T08:01:08;99818.38;;;24.05;95.76
46347;BME280;32057;47.830;19.046;2023-07-29T08:03:37;99815.50;;;24.10;95.13
46347;BME280;32057;47.830;19.046;2023-07-29T08:06:02;99816.72;;;24.23;94.63
46347;BME280;32057;47.830;19.046;2023-07-29T08:08:28;99820.44;;;24.19;93.73
46347;BME280;32057;47.830;19.046;2023-07-29T08:10:54;99812.41;;;24.20;93.03
46347;BME280;32057;47.830;19.046;2023-07-29T08:13:20;99802.34;;;24.27;92.68
46347;BME280;32057;47.830;19.046;2023-07-29T08:15:47;99803.84;;;24.53;92.16
46347;BME280;32057;47.830;19.046;2023-07-29T08:18:13;99799.69;;;24.67;91.95
46347;BME280;32057;47.830;19.046;2023-07-29T08:20:38;99804.09;;;24.87;89.99
46347;BME280;32057;47.830;19.046;2023-07-29T08:23:03;99801.69;;;25.18;91.16
46347;BME280;32057;47.830;19.046;2023-07-29T08:25:29;99795.31;;;25.22;90.41
46347;BME280;32057;47.830;19.046;2023-07-29T08:27:54;99802.94;;;25.48;89.66
46347;BME280;32057;47.830;19.046;2023-07-29T08:30:20;99802.53;;;25.38;90.43
46347;BME280;32057;47.830;19.046;2023-07-29T08:32:45;99802.94;;;25.48;89.41
46347;BME280;32057;47.830;19.046;2023-07-29T08:35:11;99797.88;;;25.60;89.67
46347;BME280;32057;47.830;19.046;2023-07-29T08:37:36;99790.53;;;26.00;89.83
46347;BME280;32057;47.830;19.046;2023-07-29T08:40:01;99787.94;;;25.99;85.65
46347;BME280;32057;47.830;19.046;2023-07-29T08:42:29;99783.38;;;26.18;82.97
46347;BME280;32057;47.830;19.046;2023-07-29T08:44:56;99790.13;;;26.41;85.09
46347;BME280;32057;47.830;19.046;2023-07-29T08:47:21;99784.44;;;26.65;82.38
46347;BME280;32057;47.830;19.046;2023-07-29T08:49:47;99783.81;;;26.60;81.32
46347;BME280;32057;47.830;19.046;2023-07-29T08:52:14;99774.53;;;26.50;80.36
46347;BME280;32057;47.830;19.046;2023-07-29T08:54:40;99779.41;;;26.26;79.43
46347;BME280;32057;47.830;19.046;2023-07-29T08:57:06;99771.53;;;26.07;81.50
46347;BME280;32057;47.830;19.046;2023-07-29T08:59:31;99781.25;;;26.08;81.79
46347;BME280;32057;47.830;19.046;2023-07-29T09:01:58;99782.91;;;25.93;78.99
46347;BME280;32057;47.830;19.046;2023-07-29T09:04:23;99772.41;;;26.40;82.51
46347;BME280;32057;47.830;19.046;2023-07-29T09:06:50;99773.78;;;26.48;77.86
46347;BME280;32057;47.830;19.046;2023-07-29T09:09:16;99766.38;;;26.53;78.24
46347;BME280;32057;47.830;19.046;2023-07-29T09:11:41;99776.94;;;26.88;80.14
46347;BME280;32057;47.830;19.046;2023-07-29T09:14:06;99771.25;;;26.78;76.89
46347;BME280;32057;47.830;19.046;2023-07-29T09:16:32;99773.81;;;26.63;76.42
46347;BME280;32057;47.830;19.046;2023-07-29T09:19:01;99771.69;;;26.70;77.41
46347;BME280;32057;47.830;19.046;2023-07-29T09:21:28;99767.47;;;26.98;79.90
46347;BME280;32057;47.830;19.046;2023-07-29T09:23:54;99764.34;;;27.21;79.11
46347;BME280;32057;47.830;19.046;2023-07-29T09:26:24;99770.56;;;27.06;74.77
46347;BME280;32057;47.830;19.046;2023-07-29T09:28:54;99761.34;;;26.96;69.48
46347;BME280;32057;47.830;19.046;2023-07-29T09:31:25;99760.56;;;26.94;68.83
46347;BME280;32057;47.830;19.046;2023-07-29T09:34:02;99756.53;;;27.02;68.00
46347;BME280;32057;47.830;19.046;2023-07-29T09:36:30;99759.31;;;26.52;67.58
46347;BME280;32057;47.830;19.046;2023-07-29T09:38:56;99749.13;;;26.27;69.71
46347;BME280;32057;47.830;19.046;2023-07-29T09:41:26;99752.03;;;26.22;71.84
46347;BME280;32057;47.830;19.046;2023-07-29T09:44:00;99751.72;;;26.28;71.75
46347;BME280;32057;47.830;19.046;2023-07-29T09:46:32;99751.53;;;26.31;69.74
46347;BME280;32057;47.830;19.046;2023-07-29T09:48:58;99748.13;;;26.45;68.71
46347;BME280;32057;47.830;19.046;2023-07-29T09:51:24;99749.53;;;26.52;69.07
46347;BME280;32057;47.830;19.046;2023-07-29T09:53:51;99751.00;;;26.74;69.51
46347;BME280;32057;47.830;19.046;2023-07-29T09:56:17;99752.06;;;26.87;67.26
46347;BME280;32057;47.830;19.046;2023-07-29T09:58:47;99754.72;;;26.87;66.68
46347;BME280;32057;47.830;19.046;2023-07-29T10:01:13;99747.00;;;26.82;66.73
46347;BME280;32057;47.830;19.046;2023-07-29T10:03:40;99747.84;;;26.83;68.23
46347;BME280;32057;47.830;19.046;2023-07-29T10:06:06;99755.69;;;27.02;67.07
46347;BME280;32057;47.830;19.046;2023-07-29T10:08:33;99748.66;;;27.15;65.48
46347;BME280;32057;47.830;19.046;2023-07-29T10:11:05;99751.63;;;26.95;65.46
46347;BME280;32057;47.830;19.046;2023-07-29T10:13:30;99743.19;;;26.87;65.96
46347;BME280;32057;47.830;19.046;2023-07-29T10:15:56;99745.44;;;26.78;64.41
46347;BME280;32057;47.830;19.046;2023-07-29T10:18:23;99743.00;;;26.90;65.05
46347;BME280;32057;47.830;19.046;2023-07-29T10:20:51;99744.88;;;27.35;67.08
46347;BME280;32057;47.830;19.046;2023-07-29T10:23:18;99741.16;;;27.68;65.26
46347;BME280;32057;47.830;19.046;2023-07-29T10:25:50;99736.88;;;27.80;61.54
46347;BME280;32057;47.830;19.046;2023-07-29T10:28:20;99736.72;;;27.53;62.64
46347;BME280;32057;47.830;19.046;2023-07-29T10:30:46;99743.28;;;27.47;62.44
46347;BME280;32057;47.830;19.046;2023-07-29T10:33:11;99736.94;;;27.34;64.34
46347;BME280;32057;47.830;19.046;2023-07-29T10:35:38;99739.69;;;27.48;62.46
46347;BME280;32057;47.830;19.046;2023-07-29T10:38:04;99738.19;;;27.28;63.51
46347;BME280;32057;47.830;19.046;2023-07-29T10:40:57;99739.97;;;27.28;64.18
46347;BME280;32057;47.830;19.046;2023-07-29T10:43:36;99734.81;;;27.55;65.28
46347;BME280;32057;47.830;19.046;2023-07-29T10:46:17;99730.34;;;27.70;63.45
46347;BME280;32057;47.830;19.046;2023-07-29T10:48:51;99736.09;;;27.33;62.91
46347;BME280;32057;47.830;19.046;2023-07-29T10:51:36;99731.69;;;27.63;62.63
46347;BME280;32057;47.830;19.046;2023-07-29T10:54:13;99734.94;;;27.68;60.56
46347;BME280;32057;47.830;19.046;2023-07-29T10:56:49;99724.00;;;27.87;60.93
46347;BME280;32057;47.830;19.046;2023-07-29T11:02:15;99721.94;;;28.20;60.10
46347;BME280;32057;47.830;19.046;2023-07-29T11:04:50;99721.56;;;28.27;59.10
46347;BME280;32057;47.830;19.046;2023-07-29T11:15:04;99723.94;;;28.31;54.74
46347;BME280;32057;47.830;19.046;2023-07-29T11:17:33;99714.97;;;28.32;56.36
46347;BME280;32057;47.830;19.046;2023-07-29T11:20:02;99717.41;;;28.35;54.40
46347;BME280;32057;47.830;19.046;2023-07-29T11:22:29;99712.84;;;28.37;54.48
46347;BME280;32057;47.830;19.046;2023-07-29T11:24:54;99715.34;;;28.55;54.81
46347;BME280;32057;47.830;19.046;2023-07-29T11:27:20;99715.69;;;28.49;55.34
46347;BME280;32057;47.830;19.046;2023-07-29T11:29:46;99708.63;;;28.33;55.79
46347;BME280;32057;47.830;19.046;2023-07-29T11:32:12;99706.34;;;28.27;53.58
46347;BME280;32057;47.830;19.046;2023-07-29T11:34:37;99714.94;;;28.61;53.91
46347;BME280;32057;47.830;19.046;2023-07-29T11:37:05;99711.59;;;28.72;53.50
46347;BME280;32057;47.830;19.046;2023-07-29T11:39:32;99707.03;;;28.87;53.46
46347;BME280;32057;47.830;19.046;2023-07-29T11:41:58;99713.63;;;28.81;53.37
46347;BME280;32057;47.830;19.046;2023-07-29T11:44:24;99716.53;;;28.49;54.23
46347;BME280;32057;47.830;19.046;2023-07-29T11:46:50;99705.59;;;28.11;55.06
46347;BME280;32057;47.830;19.046;2023-07-29T11:49:15;99707.31;;;28.40;55.20
46347;BME280;32057;47.830;19.046;2023-07-29T11:51:41;99701.84;;;28.56;55.13
46347;BME280;32057;47.830;19.046;2023-07-29T11:54:08;99701.84;;;28.84;56.03
46347;BME280;32057;47.830;19.046;2023-07-29T11:56:34;99705.09;;;28.89;53.66
46347;BME280;32057;47.830;19.046;2023-07-29T11:59:01;99700.91;;;28.85;52.84
46347;BME280;32057;47.830;19.046;2023-07-29T12:01:28;99697.81;;;28.64;53.84
46347;BME280;32057;47.830;19.046;2023-07-29T12:03:55;99702.59;;;29.00;55.89
46347;BME280;32057;47.830;19.046;2023-07-29T12:06:21;99702.84;;;28.83;51.70
46347;BME280;32057;47.830;19.046;2023-07-29T12:08:47;99700.31;;;28.94;54.02
46347;BME280;32057;47.830;19.046;2023-07-29T12:11:12;99698.28;;;29.12;53.69
46347;BME280;32057;47.830;19.046;2023-07-29T12:13:38;99697.00;;;29.03;52.87
46347;BME280;32057;47.830;19.046;2023-07-29T12:16:03;99695.59;;;28.97;53.05
46347;BME280;32057;47.830;19.046;2023-07-29T12:18:33;99693.91;;;29.09;53.92
46347;BME280;32057;47.830;19.046;2023-07-29T12:20:59;99690.19;;;28.85;52.16
46347;BME280;32057;47.830;19.046;2023-07-29T12:23:25;99696.22;;;28.88;53.01
46347;BME280;32057;47.830;19.046;2023-07-29T12:25:56;99686.59;;;28.71;52.74
46347;BME280;32057;47.830;19.046;2023-07-29T12:28:22;99677.75;;;28.56;53.22
46347;BME280;32057;47.830;19.046;2023-07-29T12:30:47;99679.91;;;28.23;53.19
46347;BME280;32057;47.830;19.046;2023-07-29T12:33:32;99677.09;;;28.38;53.39
46347;BME280;32057;47.830;19.046;2023-07-29T12:35:58;99670.13;;;28.50;53.35
46347;BME280;32057;47.830;19.046;2023-07-29T12:38:25;99675.63;;;28.47;52.24
46347;BME280;32057;47.830;19.046;2023-07-29T12:40:51;99670.53;;;28.71;51.83
46347;BME280;32057;47.830;19.046;2023-07-29T12:43:16;99675.34;;;28.93;50.73
46347;BME280;32057;47.830;19.046;2023-07-29T12:45:42;99656.72;;;28.92;51.22
46347;BME280;32057;47.830;19.046;2023-07-29T12:48:09;99659.88;;;28.57;52.32
46347;BME280;32057;47.830;19.046;2023-07-29T12:50:34;99671.38;;;28.99;53.49
46347;BME280;32057;47.830;19.046;2023-07-29T12:53:00;99664.88;;;29.30;52.05
46347;BME280;32057;47.830;19.046;2023-07-29T12:55:25;99664.25;;;29.52;51.41